Airfield :
LOGIN :

Register | Disclaimer

   EN    FR    IT 

 










Legend :    VFR   Marginal VFR   IFR   Intensive IFR   Very Intensive IFR
Visi :
Ceiling :
>= 8 km
>= 3000ft
5 to 8 km
1000 to 3000 ft
1500m to 5 km
500 to 1000 ft
800 to 1500m
200 to 500 ft
< 800m
< 200 ft
Symbols :   Thunderstorms  Fog  Heavy snow  Heavy precipitations  Wind > 20 kt
SIGMETs :     Misc.  Thunderstorms  Icing  Turbulence  Mountain Waves  Volcanic Ashes







- Airport Elevation : 1367 ft
- IATA code : FDH


EDNY - Friedrichshafen

CURRENT METAR :
  • 241220Z 22005KT CAVOK 15/03 Q1022

EXPIRED METARs :
  • 241150Z 22005KT CAVOK 14/03 Q1023
  • 241120Z 22005KT 190V260 CAVOK 13/03 Q1023
  • 241050Z 22007KT CAVOK 13/03 Q1023
  • 241020Z 21005KT 160V250 CAVOK 12/03 Q1024
  • 240950Z 19003KT 120V270 CAVOK 11/03 Q1024

TAF TAF EDNY
Valid from the 24 at 12:00 until the 25 at 12:00 UTC


241100Z 2412/2512 23007KT CAVOK
BECMG 2417/2419 VRB03KT
BECMG 2508/2511 30010KT
No reported NOTAMs for that airfield.



MET'MAP, your aeronautical weather chart ! - Copyright ORBIFLY December 2007 - Disclaimer

ORBIFLY MET'MAP TEAM :

Programming & Development : Alexandra Zaïnal
Concept & Development : Baudouin d'Aumeries
Co-Development & Prog : Marc-Olivier Méhu
Technical & hardware support : Manuel Goepfert

Contact : metmap@orbifly.com




SOURCES & CREDITS :

   NOAA